Time;durP1;ratioP1;P1;durP2;ratioP2;P2;SDS_P1;SDS_P2;PMS_P1;PMS_P2;Temp;Humidity;BMP_temperature;BMP_pressure;BME280_temperature;BME280_humidity;BME280_pressure;Samples;Min_cycle;Max_cycle;Signal;HPM_P1;HPM_P2
2021/11/17 02:27:39;;;;;;;3.10;1.02;;;;;;;;;;4857613;29;20057;-67
2021/11/17 02:30:37;;;;;;;5.97;1.00;;;;;;;;;;4843017;29;20103;-68
2021/11/17 02:33:30;;;;;;;2.55;0.98;;;;;;;;;;4800105;29;20066;-67
2021/11/17 02:36:19;;;;;;;3.33;1.08;;;;;;;;;;4763406;30;20052;-67
2021/11/17 02:38:58;;;;;;;5.45;1.23;;;;;;;;;;4759877;30;20727;-67
2021/11/17 02:41:47;;;;;;;5.05;1.23;;;;;;;;;;4775114;30;20052;-67
2021/11/17 02:44:45;;;;;;;9.43;1.38;;;;;;;;;;4784160;30;20571;-69
2021/11/17 02:47:35;;;;;;;4.28;1.02;;;;;;;;;;4802232;29;20063;-73
2021/11/17 02:50:14;;;;;;;6.30;1.20;;;;;;;;;;4795220;29;20073;-69
2021/11/17 02:53:06;;;;;;;2.67;1.30;;;;;;;;;;4783634;30;20058;-72
2021/11/17 02:55:50;;;;;;;4.93;1.00;;;;;;;;;;4770350;30;20066;-69
2021/11/17 02:59:01;;;;;;;3.47;1.05;;;;;;;;;;4755700;30;20067;-69
2021/11/17 03:01:53;;;;;;;5.80;1.13;;;;;;;;;;4748632;30;20060;-69
2021/11/17 03:05:12;;;;;;;7.25;1.20;;;;;;;;;;4748219;30;20064;-68
2021/11/17 03:07:58;;;;;;;4.03;1.20;;;;;;;;;;4748490;30;20056;-70
2021/11/17 03:10:36;;;;;;;7.07;1.40;;;;;;;;;;4747774;30;20061;-69
2021/11/17 03:13:42;;;;;;;3.70;1.13;;;;;;;;;;4734994;30;20079;-69
2021/11/17 03:16:20;;;;;;;3.97;1.40;;;;;;;;;;4816860;29;20061;-71
2021/11/17 03:19:01;;;;;;;5.60;1.35;;;;;;;;;;4813336;29;20081;-70
2021/11/17 03:21:46;;;;;;;5.00;1.60;;;;;;;;;;4801249;29;20487;-70
2021/11/17 03:24:36;;;;;;;4.78;1.20;;;;;;;;;;4801758;29;20058;-69
2021/11/17 03:27:10;;;;;;;5.63;1.27;;;;;;;;;;4828893;29;20590;-68
2021/11/17 03:29:55;;;;;;;4.38;1.05;;;;;;;;;;4805776;29;20058;-67
2021/11/17 03:32:35;;;;;;;5.25;1.20;;;;;;;;;;4798328;29;20059;-67
2021/11/17 03:35:19;;;;;;;6.43;1.40;;;;;;;;;;4816719;29;20085;-68
2021/11/17 03:38:08;;;;;;;5.78;1.30;;;;;;;;;;4830856;29;20053;-68
2021/11/17 03:41:00;;;;;;;6.97;1.33;;;;;;;;;;4856479;29;20053;-69
2021/11/17 03:44:00;;;;;;;6.07;1.27;;;;;;;;;;4856658;29;20068;-67
2021/11/17 03:47:20;;;;;;;6.70;1.30;;;;;;;;;;4856608;29;20061;-67
2021/11/17 03:49:50;;;;;;;6.03;1.52;;;;;;;;;;4856584;29;20061;-67
2021/11/17 03:52:36;;;;;;;8.20;1.30;;;;;;;;;;4864836;29;20413;-68
2021/11/17 03:55:18;;;;;;;9.27;1.40;;;;;;;;;;4912490;29;20064;-66
2021/11/17 03:58:16;;;;;;;5.68;1.58;;;;;;;;;;4912348;29;20535;-67
2021/11/17 04:01:01;;;;;;;;;;;;;;;;;;4890889;29;20172;-68
2021/11/17 04:04:19;;;;;;;9.40;1.60;;;;;;;;;;4852812;29;19925;-70
2021/11/17 04:07:01;;;;;;;4.95;1.60;;;;;;;;;;4880552;29;20056;-68
2021/11/17 04:09:50;;;;;;;5.18;1.85;;;;;;;;;;4898749;29;20056;-69
2021/11/17 04:12:37;;;;;;;4.70;1.33;;;;;;;;;;4912621;29;20527;-67
2021/11/17 04:15:07;;;;;;;5.28;1.60;;;;;;;;;;4867375;29;20068;-68
2021/11/17 04:17:43;;;;;;;8.88;1.98;;;;;;;;;;4912727;29;20056;-67
2021/11/17 04:20:47;;;;;;;3.97;1.70;;;;;;;;;;4912456;29;20056;-69
2021/11/17 04:23:36;;;;;;;4.18;1.73;;;;;;;;;;4912327;29;20071;-70
2021/11/17 04:26:29;;;;;;;5.97;1.70;;;;;;;;;;4878193;29;20197;-70
2021/11/17 04:29:40;;;;;;;11.55;2.28;;;;;;;;;;4893578;29;20435;-69
2021/11/17 04:32:35;;;;;;;6.63;1.50;;;;;;;;;;4856817;29;20057;-70
2021/11/17 04:35:17;;;;;;;11.23;1.65;;;;;;;;;;4871258;29;20059;-70
2021/11/17 04:38:18;;;;;;;9.40;1.95;;;;;;;;;;4859555;29;20065;-71
2021/11/17 04:41:06;;;;;;;5.30;1.70;;;;;;;;;;4844513;29;20060;-68
2021/11/17 04:44:20;;;;;;;12.20;2.13;;;;;;;;;;4870386;29;20064;-67
2021/11/17 04:46:53;;;;;;;6.93;1.83;;;;;;;;;;4884073;29;20505;-70
2021/11/17 04:49:55;;;;;;;8.68;1.52;;;;;;;;;;4896440;29;20536;-70
2021/11/17 04:52:37;;;;;;;5.47;1.50;;;;;;;;;;4840406;29;20060;-70
2021/11/17 04:55:30;;;;;;;6.50;1.52;;;;;;;;;;4822406;29;20073;-70
2021/11/17 04:58:11;;;;;;;5.10;1.60;;;;;;;;;;4822494;29;20058;-72
2021/11/17 05:01:03;;;;;;;11.43;1.90;;;;;;;;;;4806823;29;20054;-70
2021/11/17 05:03:51;;;;;;;6.03;1.63;;;;;;;;;;4803980;29;20062;-69
2021/11/17 05:06:35;;;;;;;5.28;1.45;;;;;;;;;;4804397;29;20063;-70
2021/11/17 05:09:36;;;;;;;7.20;1.95;;;;;;;;;;4794848;29;20059;-72
2021/11/17 05:12:29;;;;;;;4.55;1.70;;;;;;;;;;4789656;29;20553;-68
2021/11/17 05:15:09;;;;;;;7.53;1.85;;;;;;;;;;4858865;29;20507;-68
2021/11/17 05:18:23;;;;;;;8.10;1.73;;;;;;;;;;4873678;29;20053;-69
2021/11/17 05:21:12;;;;;;;3.65;1.60;;;;;;;;;;4877321;29;20064;-70
2021/11/17 05:23:56;;;;;;;8.63;1.88;;;;;;;;;;4849987;29;20073;-70
2021/11/17 05:26:58;;;;;;;5.38;2.40;;;;;;;;;;4821656;29;20076;-70
2021/11/17 05:29:38;;;;;;;5.80;1.60;;;;;;;;;;4788106;29;20059;-70
2021/11/17 05:32:18;;;;;;;8.55;2.05;;;;;;;;;;4803781;29;20063;-70
2021/11/17 05:35:32;;;;;;;5.55;1.80;;;;;;;;;;4789153;29;20070;-69
2021/11/17 05:38:32;;;;;;;8.15;1.85;;;;;;;;;;4857946;29;20159;-70
2021/11/17 05:41:07;;;;;;;7.22;1.73;;;;;;;;;;4886926;29;20060;-69
2021/11/17 05:43:52;;;;;;;4.75;1.90;;;;;;;;;;4895267;29;20056;-69
2021/11/17 05:47:11;;;;;;;6.57;1.60;;;;;;;;;;4858232;29;20805;-69
2021/11/17 05:50:07;;;;;;;3.80;1.70;;;;;;;;;;4834578;29;20058;-70
2021/11/17 05:53:00;;;;;;;8.10;1.88;;;;;;;;;;4753110;29;20165;-70
2021/11/17 05:56:03;;;;;;;7.00;1.85;;;;;;;;;;4742055;30;20064;-68
2021/11/17 05:58:57;;;;;;;7.70;1.73;;;;;;;;;;4764328;30;20068;-70
2021/11/17 06:01:53;;;;;;;5.00;1.90;;;;;;;;;;4749454;30;20068;-70
2021/11/17 06:04:24;;;;;;;4.82;2.00;;;;;;;;;;4756020;30;20056;-69
2021/11/17 06:06:55;;;;;;;3.83;1.75;;;;;;;;;;4766947;30;20051;-70
2021/11/17 06:09:25;;;;;;;6.45;1.58;;;;;;;;;;4781745;30;20528;-71
2021/11/17 06:12:00;;;;;;;6.13;1.90;;;;;;;;;;4762087;30;20060;-70
2021/11/17 06:14:36;;;;;;;5.88;1.75;;;;;;;;;;4746420;29;20067;-70
2021/11/17 06:17:16;;;;;;;6.43;1.95;;;;;;;;;;4818233;29;20499;-70
2021/11/17 06:19:49;;;;;;;5.35;1.63;;;;;;;;;;4883372;29;20055;-69
2021/11/17 06:22:24;;;;;;;4.75;1.80;;;;;;;;;;4932965;29;20447;-69
2021/11/17 06:24:59;;;;;;;8.05;2.20;;;;;;;;;;4965571;28;20095;-68
2021/11/17 06:27:32;;;;;;;3.58;1.88;;;;;;;;;;4929507;28;20063;-72
2021/11/17 06:30:04;;;;;;;4.85;1.75;;;;;;;;;;4979492;28;20058;-68
2021/11/17 06:32:35;;;;;;;6.40;2.03;;;;;;;;;;4970783;28;20055;-68
2021/11/17 06:35:07;;;;;;;7.30;1.80;;;;;;;;;;4932451;29;20598;-69
2021/11/17 06:37:38;;;;;;;4.05;1.75;;;;;;;;;;4932869;29;20064;-71
2021/11/17 06:40:13;;;;;;;8.05;1.85;;;;;;;;;;4932707;29;20071;-70
2021/11/17 06:42:57;;;;;;;4.60;1.60;;;;;;;;;;4986765;28;20066;-70
2021/11/17 06:45:39;;;;;;;8.40;1.80;;;;;;;;;;4952205;28;20051;-69
2021/11/17 06:48:10;;;;;;;5.47;1.95;;;;;;;;;;4971156;28;20062;-70
2021/11/17 06:50:44;;;;;;;6.38;2.20;;;;;;;;;;4955262;28;20055;-68
2021/11/17 06:53:16;;;;;;;4.85;1.88;;;;;;;;;;4970790;28;20541;-68
2021/11/17 06:55:47;;;;;;;7.15;2.05;;;;;;;;;;4970749;28;20086;-70
2021/11/17 06:58:18;;;;;;;4.72;2.13;;;;;;;;;;4954005;28;20051;-70
2021/11/17 07:00:51;;;;;;;5.68;1.92;;;;;;;;;;4932105;29;20051;-70
2021/11/17 07:03:24;;;;;;;7.00;2.00;;;;;;;;;;4885398;29;20047;-68
2021/11/17 07:05:55;;;;;;;5.65;2.17;;;;;;;;;;4893921;29;20417;-69
2021/11/17 07:08:25;;;;;;;7.03;2.00;;;;;;;;;;4894410;29;20061;-68
2021/11/17 07:10:55;;;;;;;5.72;2.50;;;;;;;;;;4908457;29;20062;-70
2021/11/17 07:13:26;;;;;;;5.35;2.05;;;;;;;;;;4946722;29;20058;-71
2021/11/17 07:15:57;;;;;;;4.95;2.08;;;;;;;;;;4951495;29;20435;-69
2021/11/17 07:18:27;;;;;;;6.15;2.00;;;;;;;;;;4951023;29;20070;-70
2021/11/17 07:20:57;;;;;;;3.83;1.77;;;;;;;;;;4951234;29;20591;-70
2021/11/17 07:23:28;;;;;;;6.35;2.00;;;;;;;;;;4975731;28;20050;-70
2021/11/17 07:25:59;;;;;;;9.15;2.20;;;;;;;;;;4948632;28;20521;-68
2021/11/17 07:28:29;;;;;;;6.53;1.90;;;;;;;;;;4931074;29;20192;-68
2021/11/17 07:30:59;;;;;;;4.85;2.28;;;;;;;;;;4931481;28;20463;-71
2021/11/17 07:33:30;;;;;;;6.88;2.25;;;;;;;;;;4931648;28;20063;-70
2021/11/17 07:36:01;;;;;;;5.85;2.25;;;;;;;;;;4950569;28;20051;-70
2021/11/17 07:38:34;;;;;;;5.28;1.80;;;;;;;;;;4960856;28;20055;-70
2021/11/17 07:41:04;;;;;;;5.63;2.13;;;;;;;;;;4969633;28;20051;-73
2021/11/17 07:43:35;;;;;;;6.72;2.20;;;;;;;;;;4955784;28;20055;-70
2021/11/17 07:46:07;;;;;;;5.82;2.20;;;;;;;;;;4931404;29;20060;-70
2021/11/17 07:48:37;;;;;;;9.95;2.40;;;;;;;;;;4915215;29;20063;-70
2021/11/17 07:51:08;;;;;;;3.63;2.20;;;;;;;;;;4912205;29;20053;-70
2021/11/17 07:53:39;;;;;;;4.10;2.10;;;;;;;;;;4911890;29;20056;-71
2021/11/17 07:56:11;;;;;;;6.82;2.10;;;;;;;;;;4911729;29;20096;-71
2021/11/17 07:58:43;;;;;;;8.98;2.50;;;;;;;;;;4912007;29;20048;-73
2021/11/17 08:01:15;;;;;;;9.07;2.30;;;;;;;;;;4901724;29;20413;-70
2021/11/17 08:03:48;;;;;;;8.98;2.72;;;;;;;;;;4893028;29;20053;-70
2021/11/17 08:06:25;;;;;;;4.30;2.35;;;;;;;;;;4893525;29;20464;-70
2021/11/17 08:08:56;;;;;;;5.53;2.50;;;;;;;;;;4896732;29;20056;-71
2021/11/17 08:11:26;;;;;;;5.82;2.30;;;;;;;;;;4894356;29;20057;-72
2021/11/17 08:13:57;;;;;;;6.38;2.60;;;;;;;;;;4927075;29;20048;-70
2021/11/17 08:16:27;;;;;;;7.35;2.60;;;;;;;;;;4903665;29;20064;-70
2021/11/17 08:18:58;;;;;;;9.15;2.72;;;;;;;;;;4934852;29;20051;-72
2021/11/17 08:21:28;;;;;;;6.43;2.17;;;;;;;;;;4923787;29;20052;-70
2021/11/17 08:23:59;;;;;;;5.63;2.28;;;;;;;;;;4915742;29;20063;-70
2021/11/17 08:26:29;;;;;;;6.05;2.03;;;;;;;;;;4915926;29;20588;-71
2021/11/17 08:29:00;;;;;;;8.02;2.17;;;;;;;;;;4915934;29;20063;-70
2021/11/17 08:31:31;;;;;;;9.18;2.03;;;;;;;;;;4918663;29;20062;-71
2021/11/17 08:34:01;;;;;;;5.25;1.92;;;;;;;;;;4953500;29;20419;-70
2021/11/17 08:36:32;;;;;;;4.43;2.30;;;;;;;;;;4953679;29;20066;-71
2021/11/17 08:39:04;;;;;;;5.32;2.17;;;;;;;;;;4947445;28;20414;-69
2021/11/17 08:41:34;;;;;;;;;;;;;;;;;;4973552;28;20379;-70
2021/11/17 08:44:04;;;;;;;7.55;2.50;;;;;;;;;;4972845;28;19922;-73
2021/11/17 08:46:35;;;;;;;8.27;2.40;;;;;;;;;;4972864;28;20051;-70
2021/11/17 08:49:06;;;;;;;9.23;2.60;;;;;;;;;;4972979;28;20200;-70
2021/11/17 08:51:36;;;;;;;5.30;2.20;;;;;;;;;;4972762;28;20059;-71
2021/11/17 08:54:07;;;;;;;15.20;3.10;;;;;;;;;;4973208;28;20066;-71
2021/11/17 08:56:38;;;;;;;8.80;2.20;;;;;;;;;;4972254;28;20410;-70
2021/11/17 08:59:09;;;;;;;6.85;2.30;;;;;;;;;;4982241;28;20057;-70
2021/11/17 09:01:40;;;;;;;8.27;2.58;;;;;;;;;;4976116;28;20062;-70
2021/11/17 09:04:11;;;;;;;9.35;2.58;;;;;;;;;;4975804;28;20156;-70
2021/11/17 09:06:42;;;;;;;8.82;3.13;;;;;;;;;;4991957;28;20122;-71
2021/11/17 09:09:12;;;;;;;6.70;3.03;;;;;;;;;;4981732;28;20534;-71
2021/11/17 09:11:42;;;;;;;7.80;2.65;;;;;;;;;;4962622;28;20128;-71
2021/11/17 09:14:14;;;;;;;8.25;2.67;;;;;;;;;;4937682;28;20056;-70
2021/11/17 09:16:49;;;;;;;9.20;2.55;;;;;;;;;;4927240;29;20079;-69
2021/11/17 09:19:21;;;;;;;8.23;2.40;;;;;;;;;;4932517;29;20385;-69
2021/11/17 09:21:53;;;;;;;11.15;2.45;;;;;;;;;;4952789;28;20059;-69
2021/11/17 09:24:24;;;;;;;7.38;2.20;;;;;;;;;;4944205;28;20543;-69
2021/11/17 09:26:55;;;;;;;6.05;2.20;;;;;;;;;;4937162;28;20055;-70
2021/11/17 09:29:27;;;;;;;5.97;2.33;;;;;;;;;;4936681;28;20443;-72
2021/11/17 09:31:57;;;;;;;6.90;2.20;;;;;;;;;;4952288;28;20051;-71
2021/11/17 09:34:28;;;;;;;9.05;2.50;;;;;;;;;;4967255;28;20062;-71
2021/11/17 09:37:03;;;;;;;10.82;2.80;;;;;;;;;;4990761;28;20050;-70
2021/11/17 09:39:33;;;;;;;5.03;2.22;;;;;;;;;;4990576;28;20050;-71
2021/11/17 09:42:06;;;;;;;5.60;2.63;;;;;;;;;;4967680;28;20418;-71
2021/11/17 09:44:44;;;;;;;8.65;2.58;;;;;;;;;;4952380;29;20445;-70
2021/11/17 09:47:19;;;;;;;17.15;2.55;;;;;;;;;;4952709;29;20438;-71
2021/11/17 09:49:58;;;;;;;8.48;2.35;;;;;;;;;;4952124;29;20063;-71
2021/11/17 09:52:41;;;;;;;7.30;2.25;;;;;;;;;;4935960;29;20055;-71
2021/11/17 09:55:23;;;;;;;7.40;2.50;;;;;;;;;;4952210;29;20054;-72
2021/11/17 09:58:11;;;;;;;7.95;2.30;;;;;;;;;;4952047;29;20062;-72
2021/11/17 10:00:44;;;;;;;8.57;2.60;;;;;;;;;;4864262;29;20053;-70
2021/11/17 10:03:30;;;;;;;9.70;2.50;;;;;;;;;;4895102;29;20425;-76
2021/11/17 10:14:38;;;;;;;9.32;2.97;;;;;;;;;;4882757;29;20059;-71
2021/11/17 10:17:48;;;;;;;7.55;3.03;;;;;;;;;;4894684;29;20061;-70
2021/11/17 10:20:56;;;;;;;15.07;2.78;;;;;;;;;;4867138;29;20056;-72
2021/11/17 10:23:33;;;;;;;12.00;2.92;;;;;;;;;;4913765;29;20056;-73
2021/11/17 10:26:14;;;;;;;15.25;3.40;;;;;;;;;;4913464;29;20060;-71
2021/11/17 10:28:57;;;;;;;10.63;3.10;;;;;;;;;;4913339;29;20055;-71
2021/11/17 10:31:34;;;;;;;14.07;3.00;;;;;;;;;;4913145;29;20064;-70
2021/11/17 10:34:17;;;;;;;6.85;2.80;;;;;;;;;;4913175;29;20056;-69
2021/11/17 10:36:56;;;;;;;4.95;2.70;;;;;;;;;;4932332;29;20044;-69
2021/11/17 10:39:38;;;;;;;10.60;2.85;;;;;;;;;;4950252;28;20075;-70
2021/11/17 10:42:12;;;;;;;7.43;2.58;;;;;;;;;;4970162;28;20051;-69
2021/11/17 10:44:53;;;;;;;10.85;3.08;;;;;;;;;;4950969;28;20051;-72
2021/11/17 10:47:45;;;;;;;12.68;3.10;;;;;;;;;;4951221;28;20062;-71
2021/11/17 10:50:24;;;;;;;6.38;2.78;;;;;;;;;;4928499;29;20097;-71
2021/11/17 10:53:01;;;;;;;8.10;2.83;;;;;;;;;;4913144;29;20071;-71
2021/11/17 10:55:43;;;;;;;6.68;2.42;;;;;;;;;;4935133;28;20487;-73
2021/11/17 10:58:20;;;;;;;12.43;2.95;;;;;;;;;;4951339;28;20057;-71
2021/11/17 11:01:16;;;;;;;8.50;2.80;;;;;;;;;;4955955;28;20050;-71
2021/11/17 11:03:52;;;;;;;8.68;3.17;;;;;;;;;;4954653;28;20059;-71
2021/11/17 11:06:30;;;;;;;9.00;3.28;;;;;;;;;;4969952;28;20062;-68
2021/11/17 11:09:09;;;;;;;8.68;2.92;;;;;;;;;;4947194;29;20496;-70
2021/11/17 11:11:48;;;;;;;8.95;2.65;;;;;;;;;;4931898;29;20051;-70
2021/11/17 11:14:30;;;;;;;6.82;2.58;;;;;;;;;;4916361;29;20440;-70
2021/11/17 11:17:38;;;;;;;6.72;2.60;;;;;;;;;;4931930;29;20059;-68
2021/11/17 11:20:18;;;;;;;8.07;2.83;;;;;;;;;;4962984;28;20062;-70
2021/11/17 11:22:57;;;;;;;14.50;2.88;;;;;;;;;;4944204;28;20596;-70
2021/11/17 11:25:40;;;;;;;7.93;2.53;;;;;;;;;;4970416;28;20054;-71
2021/11/17 11:28:23;;;;;;;7.90;3.20;;;;;;;;;;4950668;29;20047;-66
2021/11/17 11:31:07;;;;;;;12.35;4.90;;;;;;;;;;4931509;29;20052;-69
2021/11/17 11:33:40;;;;;;;10.45;3.63;;;;;;;;;;4941280;28;20054;-67
2021/11/17 11:36:11;;;;;;;14.57;3.50;;;;;;;;;;4969765;28;20058;-69
2021/11/17 11:38:46;;;;;;;9.10;3.65;;;;;;;;;;4969955;28;20051;-67
2021/11/17 11:41:40;;;;;;;13.02;3.60;;;;;;;;;;4969309;28;20055;-67
2021/11/17 11:44:25;;;;;;;8.98;3.47;;;;;;;;;;4953915;28;20063;-67
2021/11/17 11:47:00;;;;;;;9.73;3.28;;;;;;;;;;4961809;28;20055;-67
2021/11/17 11:49:44;;;;;;;10.40;3.03;;;;;;;;;;4969880;28;20070;-68
2021/11/17 11:52:23;;;;;;;7.45;2.97;;;;;;;;;;4953884;28;20195;-73
2021/11/17 11:54:54;;;;;;;13.65;3.20;;;;;;;;;;4969857;28;20055;-69
2021/11/17 11:57:35;;;;;;;10.50;3.75;;;;;;;;;;4944090;28;20097;-68
2021/11/17 12:00:26;;;;;;;9.95;2.85;;;;;;;;;;4950230;28;20064;-66
2021/11/17 12:03:06;;;;;;;14.02;3.28;;;;;;;;;;4950184;28;20051;-66
2021/11/17 12:05:37;;;;;;;7.63;2.72;;;;;;;;;;4942871;28;20511;-68
2021/11/17 12:08:45;;;;;;;9.98;2.65;;;;;;;;;;4889857;28;20466;-66
2021/11/17 12:11:21;;;;;;;11.70;2.60;;;;;;;;;;4950333;28;20095;-71
2021/11/17 12:14:03;;;;;;;7.20;2.42;;;;;;;;;;4949970;28;20058;-68
2021/11/17 12:16:49;;;;;;;6.57;2.42;;;;;;;;;;4930737;28;20058;-68
2021/11/17 12:19:50;;;;;;;9.05;2.20;;;;;;;;;;4946678;28;20096;-69
2021/11/17 12:22:36;;;;;;;11.40;2.45;;;;;;;;;;4931301;29;20060;-68
2021/11/17 12:25:29;;;;;;;8.43;4.45;;;;;;;;;;4892794;29;20060;-68
2021/11/17 12:28:10;;;;;;;9.00;2.60;;;;;;;;;;4893200;29;20056;-68
2021/11/17 12:30:43;;;;;;;12.63;2.78;;;;;;;;;;4893328;29;20064;-71
2021/11/17 12:33:20;;;;;;;10.60;3.65;;;;;;;;;;4893317;29;20478;-68
2021/11/17 12:36:19;;;;;;;7.15;2.03;;;;;;;;;;4897192;29;20162;-66
2021/11/17 12:38:51;;;;;;;9.05;2.97;;;;;;;;;;4901908;29;20523;-69
2021/11/17 12:41:32;;;;;;;8.38;2.45;;;;;;;;;;4950142;29;20051;-70
2021/11/17 12:44:10;;;;;;;7.65;2.55;;;;;;;;;;4950255;29;20063;-70
2021/11/17 12:46:50;;;;;;;10.90;3.03;;;;;;;;;;4950295;29;20059;-70
2021/11/17 12:49:24;;;;;;;6.60;2.50;;;;;;;;;;4950005;29;20103;-69
2021/11/17 12:52:07;;;;;;;11.27;2.83;;;;;;;;;;4949952;29;20059;-68
2021/11/17 12:54:49;;;;;;;10.90;5.40;;;;;;;;;;4933353;29;20059;-68
2021/11/17 12:57:40;;;;;;;6.68;2.60;;;;;;;;;;4946630;29;20570;-70
2021/11/17 13:00:13;;;;;;;13.18;2.83;;;;;;;;;;4953006;29;20047;-69
2021/11/17 13:02:54;;;;;;;16.35;2.95;;;;;;;;;;4953013;28;20055;-69
2021/11/17 13:05:31;;;;;;;10.43;3.15;;;;;;;;;;4929866;29;20048;-70
2021/11/17 13:08:15;;;;;;;9.25;2.42;;;;;;;;;;4880307;29;20045;-69
2021/11/17 13:11:05;;;;;;;14.80;6.45;;;;;;;;;;4858197;29;20057;-72
2021/11/17 13:13:46;;;;;;;11.55;3.30;;;;;;;;;;4858740;29;20391;-69
2021/11/17 13:16:24;;;;;;;70.78;30.13;;;;;;;;;;4831026;29;20049;-68
2021/11/17 13:19:04;;;;;;;80.82;32.03;;;;;;;;;;4866791;29;20049;-69
2021/11/17 13:21:39;;;;;;;30.00;9.65;;;;;;;;;;4876783;29;20064;-68
2021/11/17 13:24:38;;;;;;;11.70;4.78;;;;;;;;;;4877173;29;20060;-70
2021/11/17 13:27:09;;;;;;;10.77;3.40;;;;;;;;;;4876827;29;20068;-69
2021/11/17 13:29:54;;;;;;;10.60;2.70;;;;;;;;;;4858059;29;20045;-69
2021/11/17 13:32:26;;;;;;;;;;;;;;;;;;4848839;29;20073;-69
2021/11/17 13:35:00;;;;;;;9.75;3.28;;;;;;;;;;4854578;29;19924;-69
2021/11/17 13:37:38;;;;;;;14.10;4.88;;;;;;;;;;4839827;29;20069;-68
2021/11/17 13:40:18;;;;;;;15.30;3.72;;;;;;;;;;4883877;29;20060;-69
2021/11/17 13:42:51;;;;;;;9.25;3.65;;;;;;;;;;4902413;29;20052;-69
2021/11/17 13:45:31;;;;;;;10.00;4.70;;;;;;;;;;4907790;29;20065;-72
2021/11/17 13:48:02;;;;;;;10.95;3.40;;;;;;;;;;4836832;29;20047;-72
2021/11/17 13:50:35;;;;;;;10.75;3.25;;;;;;;;;;4803755;29;20059;-70
2021/11/17 13:53:10;;;;;;;8.55;3.20;;;;;;;;;;4808796;29;20065;-69
2021/11/17 13:55:46;;;;;;;10.40;3.63;;;;;;;;;;4889160;29;20398;-68
2021/11/17 13:58:16;;;;;;;10.88;3.28;;;;;;;;;;4858047;29;20053;-69
2021/11/17 14:00:47;;;;;;;9.13;3.28;;;;;;;;;;4839157;29;20061;-69
2021/11/17 14:03:19;;;;;;;9.25;3.25;;;;;;;;;;4823996;29;20057;-69
2021/11/17 14:05:50;;;;;;;12.95;3.45;;;;;;;;;;4808190;29;20073;-69
2021/11/17 14:08:22;;;;;;;12.88;4.15;;;;;;;;;;4856210;29;20057;-70
2021/11/17 14:10:52;;;;;;;7.35;3.75;;;;;;;;;;4858092;29;20057;-69
2021/11/17 14:13:23;;;;;;;9.65;3.75;;;;;;;;;;4857766;29;20053;-71
2021/11/17 14:15:54;;;;;;;7.55;3.20;;;;;;;;;;4857571;29;20065;-71
2021/11/17 14:18:28;;;;;;;14.02;3.90;;;;;;;;;;4918063;29;20074;-71
2021/11/17 14:21:01;;;;;;;7.10;3.30;;;;;;;;;;4945711;28;20173;-70
2021/11/17 14:23:32;;;;;;;7.80;3.17;;;;;;;;;;4951344;28;20055;-71
2021/11/17 14:26:08;;;;;;;7.15;2.92;;;;;;;;;;4944439;28;20067;-71
2021/11/17 14:28:40;;;;;;;15.00;4.75;;;;;;;;;;4951555;28;20076;-69
2021/11/17 14:31:17;;;;;;;17.17;3.40;;;;;;;;;;4935784;29;20058;-68
2021/11/17 14:33:56;;;;;;;11.43;3.72;;;;;;;;;;4938675;28;20083;-70
2021/11/17 14:36:31;;;;;;;17.15;3.42;;;;;;;;;;4932255;29;20060;-70
2021/11/17 14:39:03;;;;;;;11.43;3.83;;;;;;;;;;4894618;29;20182;-70
2021/11/17 14:41:34;;;;;;;10.57;3.40;;;;;;;;;;4941195;28;20381;-70
2021/11/17 14:44:06;;;;;;;12.55;4.03;;;;;;;;;;4951513;28;20051;-70
2021/11/17 14:46:38;;;;;;;15.40;4.55;;;;;;;;;;4951077;28;20055;-71
2021/11/17 14:49:11;;;;;;;13.55;4.13;;;;;;;;;;4951162;28;20062;-71
2021/11/17 14:51:42;;;;;;;18.02;8.93;;;;;;;;;;4951116;28;20058;-70
2021/11/17 14:54:13;;;;;;;18.00;8.30;;;;;;;;;;4950932;28;20051;-73
2021/11/17 14:56:45;;;;;;;10.85;3.78;;;;;;;;;;4936665;28;20063;-71
2021/11/17 14:59:15;;;;;;;;;;;;;;;;;;4948147;28;20133;-71
2021/11/17 15:01:46;;;;;;;14.80;6.25;;;;;;;;;;4945680;28;20418;-71
2021/11/17 15:04:17;;;;;;;12.15;4.60;;;;;;;;;;4965363;28;20061;-70
2021/11/17 15:06:50;;;;;;;11.65;5.10;;;;;;;;;;4950733;29;20098;-71
2021/11/17 15:09:21;;;;;;;15.00;5.72;;;;;;;;;;4951024;29;20059;-71
2021/11/17 15:12:16;;;;;;;10.32;5.60;;;;;;;;;;4899709;29;20056;-71
2021/11/17 15:14:49;;;;;;;15.27;4.72;;;;;;;;;;4931935;29;20063;-73
2021/11/17 15:17:19;;;;;;;;;;;;;;;;;;4932037;29;20055;-71
2021/11/17 15:19:49;;;;;;;13.48;6.88;;;;;;;;;;4918788;29;19924;-72
2021/11/17 15:22:22;;;;;;;19.70;10.02;;;;;;;;;;4912620;29;20063;-72
2021/11/17 15:24:53;;;;;;;10.98;6.78;;;;;;;;;;4926936;29;20095;-73
2021/11/17 15:27:46;;;;;;;12.50;5.25;;;;;;;;;;4945749;29;20074;-73
2021/11/17 15:30:24;;;;;;;13.07;6.07;;;;;;;;;;4950549;29;20668;-73
2021/11/17 15:32:55;;;;;;;17.75;7.00;;;;;;;;;;4970073;28;20055;-72
2021/11/17 15:35:29;;;;;;;17.42;8.25;;;;;;;;;;4969785;28;20055;-73
2021/11/17 15:38:01;;;;;;;25.13;9.98;;;;;;;;;;4950266;29;20578;-72
2021/11/17 15:40:35;;;;;;;18.90;8.95;;;;;;;;;;4931949;29;20062;-73
2021/11/17 15:43:06;;;;;;;21.88;9.18;;;;;;;;;;4912422;29;20440;-72
2021/11/17 15:45:38;;;;;;;16.85;9.45;;;;;;;;;;4930915;29;20059;-73
2021/11/17 15:48:12;;;;;;;16.08;6.90;;;;;;;;;;4931397;29;20066;-72
2021/11/17 15:50:53;;;;;;;13.60;7.55;;;;;;;;;;4953048;28;20054;-72
2021/11/17 15:53:23;;;;;;;12.10;5.95;;;;;;;;;;4937691;28;20066;-75
2021/11/17 15:55:54;;;;;;;14.52;6.25;;;;;;;;;;4931228;29;20055;-70
2021/11/17 15:58:26;;;;;;;11.65;6.30;;;;;;;;;;4931420;29;20071;-72
2021/11/17 16:00:56;;;;;;;12.20;5.95;;;;;;;;;;4929523;29;20048;-71
2021/11/17 16:03:28;;;;;;;9.95;5.45;;;;;;;;;;4912381;29;20520;-71
2021/11/17 16:06:03;;;;;;;13.73;5.13;;;;;;;;;;4912197;29;20422;-70
2021/11/17 16:08:35;;;;;;;9.77;5.95;;;;;;;;;;4912096;29;20176;-71
2021/11/17 16:11:07;;;;;;;10.35;5.78;;;;;;;;;;4898625;29;20052;-70
2021/11/17 16:13:37;;;;;;;;;;;;;;;;;;4893782;29;20061;-70
2021/11/17 16:16:07;;;;;;;11.68;5.03;;;;;;;;;;4906624;29;19927;-70
2021/11/17 16:18:38;;;;;;;12.30;5.32;;;;;;;;;;4938189;29;20051;-77
2021/11/17 16:21:13;;;;;;;12.43;4.95;;;;;;;;;;4962749;28;20403;-71
2021/11/17 16:26:26;;;;;;;11.00;4.45;;;;;;;;;;4950192;29;20407;-69
2021/11/17 16:29:01;;;;;;;11.20;4.53;;;;;;;;;;4952098;28;20435;-69
2021/11/17 16:31:34;;;;;;;20.92;6.03;;;;;;;;;;4953957;29;20062;-69
2021/11/17 16:34:06;;;;;;;8.88;4.10;;;;;;;;;;4971254;28;20576;-69
2021/11/17 16:36:44;;;;;;;19.02;5.50;;;;;;;;;;4944563;28;20054;-71
2021/11/17 16:39:15;;;;;;;13.38;4.78;;;;;;;;;;4992282;28;20074;-71
2021/11/17 16:41:45;;;;;;;8.55;4.18;;;;;;;;;;4993053;28;21001;-70
2021/11/17 16:44:16;;;;;;;8.63;4.65;;;;;;;;;;4992478;28;21089;-67
2021/11/17 16:46:48;;;;;;;14.55;4.63;;;;;;;;;;4972665;28;20062;-66
2021/11/17 16:49:22;;;;;;;12.18;5.55;;;;;;;;;;4973098;28;20507;-69
2021/11/17 16:52:31;;;;;;;13.15;4.75;;;;;;;;;;4985615;28;20057;-68
2021/11/17 16:55:06;;;;;;;9.95;4.97;;;;;;;;;;4972668;28;20718;-69
2021/11/17 16:57:37;;;;;;;10.40;4.72;;;;;;;;;;4972634;28;20108;-70
2021/11/17 17:00:11;;;;;;;11.30;5.15;;;;;;;;;;4991728;28;20046;-70
2021/11/17 17:02:42;;;;;;;10.05;4.53;;;;;;;;;;4972547;28;20506;-70
2021/11/17 17:05:13;;;;;;;11.88;4.95;;;;;;;;;;4992193;28;20054;-69
2021/11/17 17:07:45;;;;;;;10.90;4.18;;;;;;;;;;4991779;28;20061;-69
2021/11/17 17:10:20;;;;;;;14.60;9.07;;;;;;;;;;4991952;28;20059;-69
2021/11/17 17:12:50;;;;;;;12.38;5.18;;;;;;;;;;4991898;28;20110;-70
2021/11/17 17:15:24;;;;;;;11.15;5.43;;;;;;;;;;4992248;28;20070;-71
2021/11/17 17:17:55;;;;;;;14.00;4.78;;;;;;;;;;4955657;28;20039;-70
2021/11/17 17:20:30;;;;;;;14.45;5.35;;;;;;;;;;4972227;28;20062;-69
2021/11/17 17:23:01;;;;;;;13.50;4.72;;;;;;;;;;4971797;28;20443;-69
2021/11/17 17:25:31;;;;;;;10.32;4.53;;;;;;;;;;4958296;28;20419;-68
2021/11/17 17:28:01;;;;;;;15.68;5.20;;;;;;;;;;4971473;28;20046;-68
2021/11/17 17:30:32;;;;;;;7.63;5.15;;;;;;;;;;4972063;28;20063;-68
2021/11/17 17:33:05;;;;;;;11.40;4.63;;;;;;;;;;4959153;28;20059;-69
2021/11/17 17:35:36;;;;;;;7.70;3.60;;;;;;;;;;4971873;28;20051;-68
2021/11/17 17:38:06;;;;;;;10.02;3.83;;;;;;;;;;4959873;28;20063;-70
2021/11/17 17:40:37;;;;;;;8.90;4.18;;;;;;;;;;4963499;28;20047;-69
2021/11/17 17:43:08;;;;;;;10.82;4.00;;;;;;;;;;4971875;28;20797;-69
2021/11/17 17:45:39;;;;;;;11.90;4.93;;;;;;;;;;4983863;28;20546;-69
2021/11/17 17:48:09;;;;;;;7.65;4.07;;;;;;;;;;4991132;28;20065;-69
2021/11/17 17:50:40;;;;;;;8.77;3.75;;;;;;;;;;4991046;28;20058;-69
2021/11/17 17:53:14;;;;;;;9.50;4.03;;;;;;;;;;4991089;28;20066;-68
2021/11/17 17:55:45;;;;;;;9.93;3.58;;;;;;;;;;4991041;28;20058;-70
2021/11/17 17:58:17;;;;;;;11.45;3.60;;;;;;;;;;4990663;28;20418;-68
2021/11/17 18:00:49;;;;;;;6.90;2.88;;;;;;;;;;4990766;28;20050;-70
2021/11/17 18:03:24;;;;;;;6.70;3.15;;;;;;;;;;4951947;28;20047;-69
2021/11/17 18:05:54;;;;;;;6.07;2.53;;;;;;;;;;4951917;28;20058;-66
2021/11/17 18:08:25;;;;;;;6.72;2.70;;;;;;;;;;4932431;29;20169;-68
2021/11/17 18:10:58;;;;;;;12.05;2.88;;;;;;;;;;4932846;29;20055;-68
2021/11/17 18:13:29;;;;;;;7.70;2.72;;;;;;;;;;4925169;29;20048;-69
2021/11/17 18:15:59;;;;;;;6.70;2.63;;;;;;;;;;4933229;29;20060;-68
2021/11/17 18:18:31;;;;;;;10.07;3.03;;;;;;;;;;4932481;29;20063;-68
2021/11/17 18:21:09;;;;;;;6.20;2.45;;;;;;;;;;4932871;29;20063;-70
2021/11/17 18:23:41;;;;;;;6.40;2.65;;;;;;;;;;4917409;29;20534;-69
2021/11/17 18:26:20;;;;;;;8.00;2.78;;;;;;;;;;4932818;29;20092;-69